createdAt,value
2022-11-07T00:00:36.058Z,100076.16
2022-11-07T00:03:24.474Z,100082.50
2022-11-07T00:06:07.904Z,100087.06
2022-11-07T00:08:55.085Z,100085.03
2022-11-07T00:11:33.154Z,100083.53
2022-11-07T00:14:26.883Z,100083.19
2022-11-07T00:17:04.765Z,100078.56
2022-11-07T00:19:51.061Z,100081.06
2022-11-07T00:22:46.263Z,100083.66
2022-11-07T00:25:30.055Z,100086.88
2022-11-07T00:28:16.479Z,100094.28
2022-11-07T00:30:58.007Z,100101.50
2022-11-07T00:33:41.592Z,100105.38
2022-11-07T00:36:25.509Z,100096.31
2022-11-07T00:39:13.723Z,100100.09
2022-11-07T00:41:54.553Z,100101.41
2022-11-07T00:44:37.180Z,100092.81
2022-11-07T00:47:18.136Z,100095.50
2022-11-07T00:50:05.078Z,100092.06
2022-11-07T00:52:47.401Z,100085.31
2022-11-07T00:55:28.071Z,100089.88
2022-11-07T00:58:14.232Z,100090.31
2022-11-07T01:01:12.715Z,100082.91
2022-11-07T01:04:32.248Z,100087.91
2022-11-07T01:07:15.993Z,100082.38
2022-11-07T01:10:06.199Z,100085.50
2022-11-07T01:12:45.250Z,100089.28
2022-11-07T01:15:22.924Z,100080.19
2022-11-07T01:18:15.468Z,100085.50
2022-11-07T01:20:57.192Z,100082.44
2022-11-07T01:23:38.180Z,100081.59
2022-11-07T01:26:17.154Z,100079.91
2022-11-07T01:29:05.032Z,100081.22
2022-11-07T01:31:47.324Z,100084.16
2022-11-07T01:34:33.994Z,100076.75
2022-11-07T01:37:21.299Z,100078.38
2022-11-07T01:40:08.962Z,100079.94
2022-11-07T01:42:50.062Z,100084.56
2022-11-07T01:45:38.144Z,100072.31
2022-11-07T01:48:19.201Z,100073.53
2022-11-07T01:51:09.584Z,100076.41
2022-11-07T01:53:56.511Z,100076.75
2022-11-07T01:56:39.090Z,100080.09
2022-11-07T01:59:30.889Z,100082.72
2022-11-07T02:02:16.581Z,100091.09
2022-11-07T02:05:02.448Z,100092.75
2022-11-07T02:07:50.185Z,100097.75
2022-11-07T02:10:47.231Z,100091.34
2022-11-07T02:13:29.998Z,100092.25
2022-11-07T02:16:13.059Z,100086.22
2022-11-07T02:18:57.677Z,100092.78
2022-11-07T02:22:05.161Z,100101.03
2022-11-07T02:25:01.460Z,100091.41
2022-11-07T02:27:46.473Z,100096.91
2022-11-07T02:30:45.726Z,100092.81
2022-11-07T02:33:32.439Z,100093.44
2022-11-07T02:36:14.675Z,100094.88
2022-11-07T02:39:02.269Z,100086.72
2022-11-07T02:41:49.178Z,100090.44
2022-11-07T02:44:36.541Z,100084.50
2022-11-07T02:47:20.185Z,100086.53
2022-11-07T02:49:58.985Z,100085.91
2022-11-07T02:52:52.230Z,100088.44
2022-11-07T02:55:41.952Z,100089.34
2022-11-07T02:58:24.009Z,100081.91
2022-11-07T03:01:12.367Z,100087.78
2022-11-07T03:03:55.975Z,100086.56
2022-11-07T03:06:42.397Z,100084.00
2022-11-07T03:09:28.759Z,100087.78
2022-11-07T03:12:16.009Z,100094.00
2022-11-07T03:14:59.291Z,100081.81
2022-11-07T03:17:44.969Z,100082.81
2022-11-07T03:20:29.285Z,100065.03
2022-11-07T03:23:04.396Z,100060.28
2022-11-07T03:25:42.027Z,100063.00
2022-11-07T03:28:29.842Z,100063.41
2022-11-07T03:31:06.503Z,100071.28
2022-11-07T03:33:48.511Z,100069.59
2022-11-07T03:36:34.104Z,100071.53
2022-11-07T03:39:25.463Z,100077.59
2022-11-07T03:42:09.870Z,100078.41
2022-11-07T03:44:53.302Z,100084.66
2022-11-07T03:47:41.961Z,100083.78
2022-11-07T03:50:23.923Z,100078.41
2022-11-07T03:53:01.283Z,100082.78
2022-11-07T03:55:50.188Z,100079.69
2022-11-07T03:58:33.740Z,100079.75
2022-11-07T04:01:15.941Z,100086.59
2022-11-07T04:04:03.040Z,100076.91
2022-11-07T04:06:50.765Z,100078.16
2022-11-07T04:09:29.202Z,100068.03
2022-11-07T04:12:28.531Z,100078.44
2022-11-07T04:15:30.687Z,100080.09
2022-11-07T04:18:15.064Z,100075.94
2022-11-07T04:20:53.191Z,100084.66
2022-11-07T04:23:50.580Z,100084.34
2022-11-07T04:26:47.613Z,100086.22
2022-11-07T04:29:45.983Z,100082.63
2022-11-07T04:32:31.808Z,100082.00
2022-11-07T04:35:16.448Z,100089.13
2022-11-07T04:37:54.343Z,100081.28
2022-11-07T04:40:38.057Z,100091.19
2022-11-07T04:43:18.905Z,100086.25
2022-11-07T04:46:01.828Z,100092.47
2022-11-07T04:48:46.697Z,100094.53
2022-11-07T04:51:35.743Z,100090.81
2022-11-07T04:54:10.008Z,100091.66
2022-11-07T04:56:55.423Z,100089.97
2022-11-07T04:59:43.913Z,100086.66
2022-11-07T05:02:27.682Z,100088.50
2022-11-07T05:05:16.236Z,100092.06
2022-11-07T05:07:58.007Z,100092.06
2022-11-07T05:10:40.031Z,100078.78
2022-11-07T05:13:25.016Z,100090.41
2022-11-07T05:16:06.075Z,100092.66
2022-11-07T05:18:55.098Z,100088.31
2022-11-07T05:21:44.908Z,100088.31
2022-11-07T05:24:32.590Z,100089.38
2022-11-07T05:27:21.387Z,100084.84
2022-11-07T05:30:02.135Z,100095.00
2022-11-07T05:33:04.244Z,100102.06
2022-11-07T05:35:49.083Z,100111.38
2022-11-07T05:38:37.618Z,100116.38
2022-11-07T05:41:26.842Z,100116.38
2022-11-07T05:44:09.578Z,100111.59
2022-11-07T05:46:52.890Z,100117.00
2022-11-07T05:49:45.000Z,100133.78
2022-11-07T05:52:28.928Z,100132.72
2022-11-07T05:55:10.669Z,100132.53
2022-11-07T05:57:56.261Z,100140.88
2022-11-07T06:00:48.212Z,100148.97
2022-11-07T06:03:29.362Z,100149.59
2022-11-07T06:06:14.620Z,100154.75
2022-11-07T06:09:04.595Z,100146.88
2022-11-07T06:11:45.994Z,100157.91
2022-11-07T06:14:28.171Z,100161.03
2022-11-07T06:17:04.948Z,100166.09
2022-11-07T06:19:51.138Z,100173.09
2022-11-07T06:22:30.046Z,100171.22
2022-11-07T06:25:16.019Z,100177.03
2022-11-07T06:27:56.388Z,100176.63
2022-11-07T06:30:35.554Z,100178.06
2022-11-07T06:33:25.895Z,100179.75
2022-11-07T06:36:09.894Z,100187.25
2022-11-07T06:38:51.571Z,100193.66
2022-11-07T06:41:37.996Z,100195.94
2022-11-07T06:44:25.594Z,100199.97
2022-11-07T06:47:04.007Z,100191.00
2022-11-07T06:49:53.117Z,100195.19
2022-11-07T06:52:31.758Z,100198.56
2022-11-07T06:55:15.576Z,100187.34
2022-11-07T06:58:03.971Z,100192.75
2022-11-07T07:00:51.036Z,100198.59
2022-11-07T07:03:43.051Z,100200.25
2022-11-07T07:06:27.755Z,100202.56
2022-11-07T07:09:11.038Z,100203.41
2022-11-07T07:11:52.037Z,100210.06
2022-11-07T07:14:42.049Z,100212.16
2022-11-07T07:17:24.013Z,100209.06
2022-11-07T07:20:04.920Z,100208.44
2022-11-07T07:22:59.081Z,100213.03
2022-11-07T07:25:43.987Z,100212.59
2022-11-07T07:28:35.998Z,100215.28
2022-11-07T07:31:32.623Z,100218.56
2022-11-07T07:34:08.687Z,100215.66
2022-11-07T07:36:54.990Z,100215.22
2022-11-07T07:39:39.021Z,100218.94
2022-11-07T07:42:16.735Z,100223.94
2022-11-07T07:45:00.610Z,100229.31
2022-11-07T07:47:46.021Z,100226.22
2022-11-07T07:50:44.335Z,100225.16
2022-11-07T07:53:36.378Z,100225.53
2022-11-07T07:56:21.009Z,100228.88
2022-11-07T07:59:05.778Z,100238.44
2022-11-07T08:01:53.531Z,100232.16
2022-11-07T08:04:36.806Z,100239.44
2022-11-07T08:07:25.908Z,100231.31
2022-11-07T08:10:27.053Z,100227.72
2022-11-07T08:13:04.969Z,100229.16
2022-11-07T08:15:49.062Z,100223.66
2022-11-07T08:18:35.793Z,100218.44
2022-11-07T08:21:20.112Z,100214.88
2022-11-07T08:24:04.235Z,100217.09
2022-11-07T08:26:45.856Z,100219.00
2022-11-07T08:29:30.864Z,100218.56
2022-11-07T08:32:30.661Z,100221.69
2022-11-07T08:35:23.767Z,100219.00
2022-11-07T08:38:08.200Z,100222.31
2022-11-07T08:40:55.139Z,100215.81
2022-11-07T08:43:48.874Z,100214.31
2022-11-07T08:46:37.950Z,100225.44
2022-11-07T08:49:33.003Z,100224.97
2022-11-07T08:52:16.435Z,100228.66
2022-11-07T08:55:05.270Z,100233.03
2022-11-07T08:57:45.910Z,100225.66
2022-11-07T09:00:34.015Z,100227.72
2022-11-07T09:03:44.309Z,100235.66
2022-11-07T09:06:18.094Z,100238.03
2022-11-07T09:09:01.521Z,100241.78
2022-11-07T09:11:43.019Z,100236.19
2022-11-07T09:14:26.818Z,100237.94
2022-11-07T09:17:08.030Z,100236.84
2022-11-07T09:19:54.029Z,100241.16
2022-11-07T09:22:46.916Z,100238.56
2022-11-07T09:25:42.258Z,100237.91
2022-11-07T09:28:20.209Z,100237.81
2022-11-07T09:31:14.544Z,100248.28
2022-11-07T09:33:57.970Z,100247.31
2022-11-07T09:39:53.320Z,100241.13
2022-11-07T09:43:30.103Z,100247.31
2022-11-07T09:46:23.496Z,100245.34
2022-11-07T09:49:25.936Z,100237.13
2022-11-07T09:52:23.133Z,100237.50
2022-11-07T09:55:38.104Z,100236.16
2022-11-07T09:58:30.997Z,100241.94
2022-11-07T10:01:11.562Z,100231.78
2022-11-07T10:04:23.733Z,100240.47
2022-11-07T10:07:26.960Z,100243.63
2022-11-07T10:10:25.585Z,100240.38
2022-11-07T10:13:21.328Z,100233.44
2022-11-07T10:16:44.653Z,100239.53
2022-11-07T10:19:52.121Z,100244.13
2022-11-07T10:22:46.373Z,100245.63
2022-11-07T10:25:50.237Z,100239.88
2022-11-07T10:28:37.241Z,100231.75
2022-11-07T10:31:28.412Z,100234.00
2022-11-07T10:34:40.635Z,100228.41
2022-11-07T10:37:24.523Z,100222.09
2022-11-07T10:40:21.688Z,100228.88
2022-11-07T10:43:10.857Z,100223.06
2022-11-07T10:45:55.726Z,100218.94
2022-11-07T10:49:00.723Z,100224.06
2022-11-07T10:51:51.319Z,100218.03
2022-11-07T10:54:36.957Z,100212.88
2022-11-07T10:57:25.557Z,100206.31
2022-11-07T11:00:12.374Z,100211.03
2022-11-07T11:03:05.518Z,100210.81
2022-11-07T11:06:03.165Z,100200.41
2022-11-07T11:08:56.800Z,100205.97
2022-11-07T11:11:47.538Z,100198.44
2022-11-07T11:14:25.571Z,100194.41
2022-11-07T11:17:14.517Z,100191.94
2022-11-07T11:20:33.063Z,100187.94
2022-11-07T11:23:33.771Z,100187.78
2022-11-07T11:26:30.435Z,100186.72
2022-11-07T11:29:19.068Z,100187.53
2022-11-07T11:32:10.213Z,100181.50
2022-11-07T11:35:11.026Z,100181.97
2022-11-07T11:38:01.341Z,100184.38
2022-11-07T11:41:04.717Z,100180.56
2022-11-07T11:44:11.508Z,100181.97
2022-11-07T11:46:56.904Z,100180.03
2022-11-07T11:49:51.265Z,100186.28
2022-11-07T11:52:35.659Z,100175.94
2022-11-07T11:55:28.322Z,100174.81
2022-11-07T11:58:38.421Z,100170.09
2022-11-07T12:01:48.412Z,100180.47
2022-11-07T12:05:03.973Z,100181.91
2022-11-07T12:07:59.006Z,100177.03
2022-11-07T12:10:59.976Z,100173.78
2022-11-07T12:14:14.414Z,100167.84
2022-11-07T12:16:59.043Z,100165.50
2022-11-07T12:19:52.218Z,100168.06
2022-11-07T12:22:57.622Z,100168.91
2022-11-07T12:25:49.345Z,100170.88
2022-11-07T12:28:45.711Z,100172.34
2022-11-07T12:31:57.301Z,100173.97
2022-11-07T12:35:12.006Z,100171.88
2022-11-07T12:38:04.063Z,100176.69
2022-11-07T12:41:25.374Z,100177.81
2022-11-07T12:44:35.961Z,100175.31
2022-11-07T12:47:33.960Z,100179.91
2022-11-07T12:50:33.655Z,100182.97
2022-11-07T12:53:38.002Z,100181.00
2022-11-07T12:56:41.059Z,100184.22
2022-11-07T12:59:42.205Z,100182.88
2022-11-07T13:02:38.488Z,100188.31
2022-11-07T13:05:38.367Z,100176.84
2022-11-07T13:09:03.434Z,100172.06
2022-11-07T13:12:05.366Z,100174.00
2022-11-07T13:14:58.026Z,100176.94
2022-11-07T13:17:49.161Z,100173.78
2022-11-07T13:20:45.614Z,100172.84
2022-11-07T13:23:44.505Z,100161.25
2022-11-07T13:26:47.979Z,100163.88
2022-11-07T13:29:44.910Z,100165.72
2022-11-07T13:32:23.046Z,100165.81
2022-11-07T13:35:29.131Z,100162.19
2022-11-07T13:38:21.971Z,100157.47
2022-11-07T13:41:10.133Z,100148.41
2022-11-07T13:43:58.512Z,100155.66
2022-11-07T13:47:05.870Z,100168.22
2022-11-07T13:49:55.642Z,100162.59
2022-11-07T13:52:59.149Z,100159.41
2022-11-07T13:55:50.983Z,100163.16
2022-11-07T13:58:38.982Z,100161.53
2022-11-07T14:01:22.746Z,100163.31
2022-11-07T14:04:11.521Z,100168.16
2022-11-07T14:07:01.406Z,100170.47
2022-11-07T14:09:38.024Z,100168.22
2022-11-07T14:12:27.422Z,100168.31
2022-11-07T14:15:39.854Z,100162.91
2022-11-07T14:18:34.236Z,100169.50
2022-11-07T14:21:31.787Z,100165.38
2022-11-07T14:24:27.426Z,100163.31
2022-11-07T14:27:26.010Z,100174.25
2022-11-07T14:30:03.670Z,100175.25
2022-11-07T14:33:11.898Z,100176.97
2022-11-07T14:35:56.666Z,100173.69
2022-11-07T14:38:36.083Z,100171.19
2022-11-07T14:41:24.562Z,100176.66
2022-11-07T14:44:08.895Z,100176.38
2022-11-07T14:46:57.443Z,100188.03
2022-11-07T14:49:49.146Z,100185.66
2022-11-07T14:52:40.703Z,100187.81
2022-11-07T14:55:30.320Z,100194.88
2022-11-07T14:58:17.822Z,100193.19
2022-11-07T15:01:03.516Z,100189.66
2022-11-07T15:03:56.588Z,100188.94
2022-11-07T15:06:44.101Z,100193.78
2022-11-07T15:09:35.689Z,100184.22
2022-11-07T15:12:54.148Z,100184.75
2022-11-07T15:15:49.440Z,100184.56
2022-11-07T15:18:37.240Z,100189.22
2022-11-07T15:21:50.379Z,100197.00
2022-11-07T15:24:54.255Z,100195.75
2022-11-07T15:27:46.998Z,100192.63
2022-11-07T15:30:38.280Z,100190.75
2022-11-07T15:33:24.734Z,100187.16
2022-11-07T15:36:13.966Z,100194.22
2022-11-07T15:39:03.142Z,100189.84
2022-11-07T15:42:00.900Z,100201.44
2022-11-07T15:45:00.820Z,100203.06
2022-11-07T15:47:49.083Z,100199.88
2022-11-07T15:50:43.728Z,100201.75
2022-11-07T15:53:35.961Z,100199.19
2022-11-07T15:56:18.852Z,100200.78
2022-11-07T15:59:34.711Z,100199.94
2022-11-07T16:02:31.032Z,100196.72
2022-11-07T16:05:20.950Z,100205.63
2022-11-07T16:11:20.941Z,100204.44
2022-11-07T16:14:21.644Z,100202.97
2022-11-07T16:17:18.771Z,100207.34
2022-11-07T16:20:01.700Z,100207.66
2022-11-07T16:22:48.393Z,100210.75
2022-11-07T16:25:28.438Z,100216.28
2022-11-07T16:28:39.161Z,100217.81
2022-11-07T16:31:32.496Z,100223.97
2022-11-07T16:34:24.916Z,100231.91
2022-11-07T16:37:08.441Z,100222.94
2022-11-07T16:40:09.130Z,100217.91
2022-11-07T16:43:12.412Z,100226.38
2022-11-07T16:45:59.894Z,100221.50
2022-11-07T16:48:55.241Z,100231.34
2022-11-07T16:51:40.100Z,100232.13
2022-11-07T16:54:17.982Z,100232.28
2022-11-07T16:57:10.065Z,100239.72
2022-11-07T16:59:56.035Z,100248.53
2022-11-07T17:02:57.546Z,100245.97
2022-11-07T17:05:38.266Z,100248.72
2022-11-07T17:08:39.145Z,100242.88
2022-11-07T17:11:38.434Z,100248.75
2022-11-07T17:14:20.898Z,100242.44
2022-11-07T17:17:20.055Z,100251.22
2022-11-07T17:20:50.331Z,100240.28
2022-11-07T17:23:52.656Z,100251.94
2022-11-07T17:26:43.486Z,100262.78
2022-11-07T17:29:26.415Z,100259.50
2022-11-07T17:32:21.204Z,100268.94
2022-11-07T17:35:31.158Z,100270.41
2022-11-07T17:38:28.297Z,100266.38
2022-11-07T17:41:17.282Z,100281.59
2022-11-07T17:44:06.531Z,100275.81
2022-11-07T17:46:54.757Z,100279.25
2022-11-07T17:49:40.957Z,100284.09
2022-11-07T17:52:32.237Z,100288.19
2022-11-07T17:55:11.201Z,100288.19
2022-11-07T17:57:55.493Z,100286.28
2022-11-07T18:00:44.549Z,100295.31
2022-11-07T18:03:46.268Z,100295.31
2022-11-07T18:06:33.244Z,100288.94
2022-11-07T18:09:13.875Z,100292.41
2022-11-07T18:11:58.389Z,100284.69
2022-11-07T18:14:41.854Z,100283.72
2022-11-07T18:17:27.520Z,100282.72
2022-11-07T18:20:13.909Z,100281.44
2022-11-07T18:23:00.254Z,100282.63
2022-11-07T18:25:52.012Z,100287.81
2022-11-07T18:28:42.694Z,100286.16
2022-11-07T18:31:25.145Z,100289.72
2022-11-07T18:34:19.715Z,100288.06
2022-11-07T18:36:58.982Z,100279.19
2022-11-07T18:39:39.681Z,100279.03
2022-11-07T18:42:31.957Z,100283.25
2022-11-07T18:45:15.226Z,100276.75
2022-11-07T18:48:04.903Z,100281.09
2022-11-07T18:50:46.281Z,100278.94
2022-11-07T18:53:37.071Z,100279.44
2022-11-07T18:56:31.959Z,100276.28
2022-11-07T18:59:31.485Z,100271.28
2022-11-07T19:02:18.166Z,100271.94
2022-11-07T19:05:01.028Z,100274.97
2022-11-07T19:07:44.877Z,100277.81
2022-11-07T19:10:23.330Z,100269.28
2022-11-07T19:13:07.949Z,100274.31
2022-11-07T19:16:04.690Z,100281.50
2022-11-07T19:18:49.400Z,100283.03
2022-11-07T19:21:35.333Z,100279.19
2022-11-07T19:24:13.400Z,100288.03
2022-11-07T19:26:55.828Z,100278.50
2022-11-07T19:29:37.895Z,100280.84
2022-11-07T19:32:32.496Z,100271.81
2022-11-07T19:35:10.908Z,100281.69
2022-11-07T19:37:57.126Z,100282.19
2022-11-07T19:40:43.085Z,100289.72
2022-11-07T19:43:21.101Z,100281.69
2022-11-07T19:46:04.299Z,100283.69
2022-11-07T19:48:45.819Z,100287.03
2022-11-07T19:51:32.203Z,100301.44
2022-11-07T19:54:20.391Z,100290.72
2022-11-07T19:57:03.514Z,100291.38
2022-11-07T19:59:57.462Z,100295.06
2022-11-07T20:03:04.636Z,100298.09
2022-11-07T20:05:49.012Z,100293.09
2022-11-07T20:08:36.413Z,100302.44
2022-11-07T20:11:37.806Z,100314.81
2022-11-07T20:14:18.815Z,100315.81
2022-11-07T20:16:59.909Z,100306.63
2022-11-07T20:19:48.982Z,100321.13
2022-11-07T20:22:47.812Z,100328.81
2022-11-07T20:25:36.643Z,100324.13
2022-11-07T20:28:22.015Z,100322.28
2022-11-07T20:31:13.832Z,100331.78
2022-11-07T20:34:07.084Z,100330.59
2022-11-07T20:37:02.540Z,100327.06
2022-11-07T20:39:49.011Z,100323.78
2022-11-07T20:42:34.555Z,100319.75
2022-11-07T20:45:14.238Z,100313.69
2022-11-07T20:48:03.048Z,100308.53
2022-11-07T20:50:53.792Z,100323.72
2022-11-07T20:53:40.022Z,100305.00
2022-11-07T20:56:23.234Z,100318.84
2022-11-07T20:59:01.999Z,100310.66
2022-11-07T21:01:50.949Z,100317.97
2022-11-07T21:04:49.864Z,100315.31
2022-11-07T21:07:47.287Z,100311.75
2022-11-07T21:10:37.001Z,100306.72
2022-11-07T21:13:22.179Z,100316.91
2022-11-07T21:16:05.388Z,100319.75
2022-11-07T21:18:55.140Z,100320.75
2022-11-07T21:21:34.031Z,100319.22
2022-11-07T21:24:23.020Z,100321.53
2022-11-07T21:27:05.965Z,100326.88
2022-11-07T21:29:46.541Z,100331.19
2022-11-07T21:32:42.064Z,100323.19
2022-11-07T21:35:45.839Z,100325.53
2022-11-07T21:38:34.998Z,100324.22
2022-11-07T21:41:16.351Z,100324.56
2022-11-07T21:44:07.047Z,100325.25
2022-11-07T21:46:53.860Z,100323.53
2022-11-07T21:49:39.991Z,100320.50
2022-11-07T21:52:23.222Z,100330.34
2022-11-07T21:55:09.054Z,100329.81
2022-11-07T21:57:54.981Z,100322.44
2022-11-07T22:00:37.233Z,100324.63
2022-11-07T22:03:59.375Z,100323.94
2022-11-07T22:06:45.742Z,100326.38
2022-11-07T22:09:31.665Z,100331.22
2022-11-07T22:12:15.006Z,100329.00
2022-11-07T22:15:00.541Z,100322.16
2022-11-07T22:17:48.207Z,100323.16
2022-11-07T22:20:44.725Z,100326.28
2022-11-07T22:23:30.077Z,100321.28
2022-11-07T22:26:31.229Z,100322.88
2022-11-07T22:29:14.979Z,100318.84
2022-11-07T22:32:01.019Z,100321.69
2022-11-07T22:34:47.006Z,100319.66
2022-11-07T22:37:39.054Z,100322.19
2022-11-07T22:40:24.391Z,100316.47
2022-11-07T22:43:10.961Z,100313.50
2022-11-07T22:46:00.275Z,100323.84
2022-11-07T22:48:50.035Z,100308.69
2022-11-07T22:51:34.971Z,100311.00
2022-11-07T22:54:14.986Z,100313.34
2022-11-07T22:57:00.392Z,100312.66
2022-11-07T22:59:41.988Z,100312.53
2022-11-07T23:02:35.103Z,100317.38
2022-11-07T23:05:17.761Z,100316.22
2022-11-07T23:07:59.110Z,100323.84
2022-11-07T23:10:43.966Z,100324.03
2022-11-07T23:13:28.331Z,100328.53
2022-11-07T23:16:33.118Z,100327.84
2022-11-07T23:19:14.457Z,100335.03
2022-11-07T23:21:59.326Z,100345.53
2022-11-07T23:24:57.081Z,100339.31
2022-11-07T23:27:47.060Z,100337.47
2022-11-07T23:30:39.184Z,100341.28
2022-11-07T23:33:17.613Z,100329.09
2022-11-07T23:36:04.930Z,100338.75
2022-11-07T23:38:49.949Z,100328.25
2022-11-07T23:41:35.059Z,100338.38
2022-11-07T23:44:20.005Z,100331.69
2022-11-07T23:47:22.701Z,100331.97
2022-11-07T23:50:19.205Z,100330.63
2022-11-07T23:53:26.790Z,100330.94
2022-11-07T23:56:09.071Z,100326.56
2022-11-07T23:59:14.965Z,100328.56
